createdAt,value
2022-08-14T00:02:24.520Z,98555.28
2022-08-14T00:04:54.593Z,98559.00
2022-08-14T00:07:21.662Z,98552.28
2022-08-14T00:09:55.967Z,98551.66
2022-08-14T00:12:48.065Z,98555.97
2022-08-14T00:15:43.374Z,98551.22
2022-08-14T00:18:14.627Z,98547.84
2022-08-14T00:20:57.983Z,98554.19
2022-08-14T00:23:26.363Z,98544.75
2022-08-14T00:26:06.069Z,98543.03
2022-08-14T00:28:36.714Z,98554.63
2022-08-14T00:31:05.470Z,98539.88
2022-08-14T00:33:51.139Z,98543.59
2022-08-14T00:36:39.095Z,98535.19
2022-08-14T00:39:13.518Z,98541.38
2022-08-14T00:41:42.278Z,98536.56
2022-08-14T00:44:09.652Z,98535.84
2022-08-14T00:46:37.914Z,98537.59
2022-08-14T00:49:06.070Z,98537.72
2022-08-14T00:51:38.050Z,98532.78
2022-08-14T00:54:16.809Z,98533.84
2022-08-14T00:56:50.795Z,98532.38
2022-08-14T00:59:25.040Z,98528.19
2022-08-14T01:01:53.328Z,98529.97
2022-08-14T01:04:37.278Z,98525.88
2022-08-14T01:07:09.470Z,98525.34
2022-08-14T01:09:36.712Z,98523.69
2022-08-14T01:12:05.291Z,98528.94
2022-08-14T01:14:32.544Z,98533.53
2022-08-14T01:16:59.983Z,98537.13
2022-08-14T01:19:46.713Z,98525.88
2022-08-14T01:22:18.990Z,98528.25
2022-08-14T01:24:46.999Z,98529.22
2022-08-14T01:27:22.379Z,98537.00
2022-08-14T01:29:59.053Z,98527.72
2022-08-14T01:32:30.220Z,98535.91
2022-08-14T01:35:18.447Z,98535.91
2022-08-14T01:37:56.521Z,98533.72
2022-08-14T01:40:36.766Z,98534.88
2022-08-14T01:43:15.888Z,98527.22
2022-08-14T01:45:49.179Z,98527.53
2022-08-14T01:48:25.876Z,98536.53
2022-08-14T01:50:54.049Z,98533.91
2022-08-14T01:53:22.620Z,98527.31
2022-08-14T01:55:51.753Z,98512.78
2022-08-14T01:58:28.525Z,98524.13
2022-08-14T02:00:58.883Z,98520.97
2022-08-14T02:03:35.529Z,98530.66
2022-08-14T02:06:33.113Z,98530.22
2022-08-14T02:08:55.418Z,98524.31
2022-08-14T02:11:26.392Z,98529.66
2022-08-14T02:14:07.178Z,98541.00
2022-08-14T02:16:40.485Z,98542.22
2022-08-14T02:19:15.221Z,98539.06
2022-08-14T02:21:48.950Z,98547.88
2022-08-14T02:24:39.592Z,98552.34
2022-08-14T02:28:22.780Z,98551.81
2022-08-14T02:30:00.578Z,98547.09
2022-08-14T02:32:36.620Z,98548.00
2022-08-14T02:35:16.699Z,98552.34
2022-08-14T02:37:49.362Z,98548.31
2022-08-14T02:40:20.414Z,98557.84
2022-08-14T02:42:55.012Z,98549.56
2022-08-14T02:45:38.426Z,98552.47
2022-08-14T02:49:01.651Z,98545.94
2022-08-14T02:51:00.576Z,98553.13
2022-08-14T02:53:29.304Z,98564.28
2022-08-14T02:56:03.288Z,98565.22
2022-08-14T02:58:42.323Z,98561.19
2022-08-14T03:01:09.964Z,98564.09
2022-08-14T03:03:38.799Z,98549.53
2022-08-14T03:06:07.308Z,98553.81
2022-08-14T03:08:38.025Z,98565.97
2022-08-14T03:11:09.677Z,98561.78
2022-08-14T03:13:37.689Z,98559.44
2022-08-14T03:16:20.008Z,98558.78
2022-08-14T03:18:48.645Z,98563.22
2022-08-14T03:21:20.762Z,98569.38
2022-08-14T03:23:50.157Z,98559.09
2022-08-14T03:26:29.641Z,98564.31
2022-08-14T03:29:01.008Z,98556.84
2022-08-14T03:31:29.368Z,98563.75
2022-08-14T03:34:00.128Z,98555.19
2022-08-14T03:37:51.841Z,98554.63
2022-08-14T03:39:22.279Z,98561.59
2022-08-14T03:41:54.424Z,98558.34
2022-08-14T03:45:26.419Z,98553.16
2022-08-14T03:47:11.678Z,98546.44
2022-08-14T03:49:42.575Z,98553.34
2022-08-14T03:52:37.747Z,98547.50
2022-08-14T03:54:57.461Z,98554.41
2022-08-14T03:57:24.701Z,98545.88
2022-08-14T03:59:51.806Z,98559.84
2022-08-14T04:02:32.470Z,98557.31
2022-08-14T04:05:12.190Z,98551.22
2022-08-14T04:07:49.505Z,98549.84
2022-08-14T04:10:31.870Z,98546.56
2022-08-14T04:13:04.025Z,98543.28
2022-08-14T04:15:55.844Z,98545.88
2022-08-14T04:18:22.020Z,98549.25
2022-08-14T04:20:54.363Z,98543.19
2022-08-14T04:23:23.660Z,98549.53
2022-08-14T04:25:56.294Z,98554.03
2022-08-14T04:29:07.369Z,98562.63
2022-08-14T04:31:11.698Z,98558.25
2022-08-14T04:33:42.565Z,98554.69
2022-08-14T04:36:15.839Z,98551.41
2022-08-14T04:39:03.388Z,98553.94
2022-08-14T04:41:53.124Z,98554.13
2022-08-14T04:44:26.562Z,98559.44
2022-08-14T04:47:22.795Z,98560.38
2022-08-14T04:49:57.288Z,98560.22
2022-08-14T04:52:25.433Z,98560.13
2022-08-14T04:54:54.556Z,98559.16
2022-08-14T04:57:22.890Z,98561.59
2022-08-14T04:59:52.875Z,98559.72
2022-08-14T05:02:25.712Z,98559.72
2022-08-14T05:04:57.090Z,98560.50
2022-08-14T05:07:46.650Z,98553.47
2022-08-14T05:10:16.342Z,98560.22
2022-08-14T05:13:13.607Z,98549.75
2022-08-14T05:15:39.630Z,98557.88
2022-08-14T05:18:17.579Z,98565.44
2022-08-14T05:21:57.105Z,98561.88
2022-08-14T05:23:52.081Z,98557.59
2022-08-14T05:26:21.884Z,98555.47
2022-08-14T05:28:49.017Z,98546.56
2022-08-14T05:31:20.583Z,98539.28
2022-08-14T05:33:56.478Z,98547.69
2022-08-14T05:36:25.516Z,98549.38
2022-08-14T05:38:54.380Z,98544.78
2022-08-14T05:41:22.503Z,98542.88
2022-08-14T05:43:50.968Z,98546.81
2022-08-14T05:46:23.082Z,98544.09
2022-08-14T05:48:57.694Z,98542.75
2022-08-14T05:51:25.080Z,98551.38
2022-08-14T05:54:01.771Z,98540.03
2022-08-14T05:56:39.129Z,98557.34
2022-08-14T05:59:07.399Z,98549.09
2022-08-14T06:01:37.636Z,98549.00
2022-08-14T06:04:05.349Z,98548.69
2022-08-14T06:06:38.230Z,98554.69
2022-08-14T06:09:05.904Z,98545.47
2022-08-14T06:11:37.506Z,98542.72
2022-08-14T06:14:06.618Z,98538.69
2022-08-14T06:16:48.324Z,98546.13
2022-08-14T06:19:18.303Z,98538.63
2022-08-14T06:21:45.660Z,98543.50
2022-08-14T06:24:18.579Z,98537.41
2022-08-14T06:26:54.333Z,98522.41
2022-08-14T06:29:24.249Z,98523.78
2022-08-14T06:31:54.624Z,98529.56
2022-08-14T06:35:02.636Z,98531.88
2022-08-14T06:37:17.198Z,98532.41
2022-08-14T06:39:44.591Z,98523.59
2022-08-14T06:42:22.331Z,98529.50
2022-08-14T06:51:19.400Z,98521.00
2022-08-14T06:53:47.361Z,98509.88
2022-08-14T06:56:14.848Z,98515.13
2022-08-14T06:58:41.940Z,98516.56
2022-08-14T07:01:28.273Z,98519.38
2022-08-14T07:04:22.559Z,98514.53
2022-08-14T07:06:58.990Z,98519.34
2022-08-14T07:09:28.246Z,98513.47
2022-08-14T07:12:54.419Z,98507.91
2022-08-14T07:15:05.069Z,98517.84
2022-08-14T07:17:36.246Z,98514.34
2022-08-14T07:20:05.173Z,98524.09
2022-08-14T07:22:56.378Z,98514.25
2022-08-14T07:25:21.742Z,98512.75
2022-08-14T07:27:53.079Z,98512.19
2022-08-14T07:30:33.411Z,98516.78
2022-08-14T07:33:03.802Z,98508.66
2022-08-14T07:35:43.007Z,98513.97
2022-08-14T07:38:20.891Z,98514.97
2022-08-14T07:40:52.991Z,98510.09
2022-08-14T07:43:21.539Z,98510.50
2022-08-14T07:45:50.796Z,98516.78
2022-08-14T07:48:25.215Z,98510.94
2022-08-14T07:50:56.205Z,98503.28
2022-08-14T07:53:30.003Z,98501.53
2022-08-14T07:56:21.942Z,98501.06
2022-08-14T07:58:51.410Z,98495.69
2022-08-14T08:01:19.363Z,98498.47
2022-08-14T08:03:54.257Z,98496.72
2022-08-14T08:06:27.540Z,98496.94
2022-08-14T08:09:36.694Z,98484.13
2022-08-14T08:19:12.514Z,98485.09
2022-08-14T08:21:48.046Z,98470.44
2022-08-14T08:34:18.276Z,98486.09
2022-08-14T08:36:46.608Z,98476.47
2022-08-14T08:39:15.316Z,98474.38
2022-08-14T08:41:49.538Z,98469.56
2022-08-14T08:44:31.805Z,98474.94
2022-08-14T08:47:05.760Z,98468.41
2022-08-14T08:49:59.418Z,98461.63
2022-08-14T08:52:31.347Z,98462.97
2022-08-14T08:55:00.836Z,98460.97
2022-08-14T08:57:33.769Z,98459.94
2022-08-14T09:00:38.042Z,98458.97
2022-08-14T09:03:44.170Z,98453.75
2022-08-14T09:07:00.118Z,98460.75
2022-08-14T09:09:03.398Z,98448.97
2022-08-14T09:11:31.579Z,98452.38
2022-08-14T09:14:02.801Z,98463.69
2022-08-14T09:16:47.789Z,98445.06
2022-08-14T09:19:21.539Z,98456.91
2022-08-14T09:22:01.581Z,98448.53
2022-08-14T09:24:51.215Z,98447.06
2022-08-14T09:27:39.647Z,98446.69
2022-08-14T09:30:39.729Z,98447.38
2022-08-14T09:36:43.641Z,98448.84
2022-08-14T09:39:23.846Z,98447.50
2022-08-14T09:42:33.814Z,98451.53
2022-08-14T09:45:18.293Z,98446.25
2022-08-14T09:47:56.254Z,98436.75
2022-08-14T09:50:36.911Z,98433.66
2022-08-14T09:53:11.095Z,98429.06
2022-08-14T10:10:41.889Z,98421.66
2022-08-14T10:55:50.448Z,98413.38
2022-08-14T10:58:51.855Z,98406.72
2022-08-14T11:02:11.219Z,98405.28
2022-08-14T11:04:47.207Z,98404.53
2022-08-14T11:07:19.316Z,98411.50
2022-08-14T11:10:00.484Z,98424.41
2022-08-14T11:12:56.037Z,98413.94
2022-08-14T11:15:27.818Z,98418.09
2022-08-14T11:18:01.360Z,98418.97
2022-08-14T11:20:32.759Z,98414.28
2022-08-14T11:23:02.115Z,98409.72
2022-08-14T11:25:36.819Z,98397.13
2022-08-14T11:28:11.193Z,98402.63
2022-08-14T11:30:49.257Z,98402.41
2022-08-14T11:33:24.158Z,98403.41
2022-08-14T11:36:02.064Z,98398.31
2022-08-14T11:38:37.914Z,98386.63
2022-08-14T11:41:07.865Z,98390.84
2022-08-14T11:43:58.416Z,98389.91
2022-08-14T11:46:37.676Z,98389.50
2022-08-14T11:51:58.576Z,98388.16
2022-08-14T11:58:55.859Z,98380.25
2022-08-14T12:01:28.909Z,98382.47
2022-08-14T12:04:07.742Z,98376.66
2022-08-14T12:06:45.058Z,98378.47
2022-08-14T12:09:32.890Z,98375.94
2022-08-14T12:12:03.730Z,98384.59
2022-08-14T12:14:35.110Z,98369.66
2022-08-14T12:17:13.168Z,98373.00
2022-08-14T12:19:51.221Z,98371.06
2022-08-14T12:22:45.162Z,98361.03
2022-08-14T12:25:14.077Z,98361.88
2022-08-14T12:27:53.210Z,98364.06
2022-08-14T12:30:39.548Z,98352.13
2022-08-14T12:33:27.149Z,98353.47
2022-08-14T12:36:00.706Z,98354.75
2022-08-14T12:38:33.916Z,98356.97
2022-08-14T12:41:08.041Z,98356.13
2022-08-14T12:44:02.077Z,98349.31
2022-08-14T12:46:31.432Z,98356.13
2022-08-14T12:48:59.912Z,98347.22
2022-08-14T12:51:28.111Z,98348.03
2022-08-14T12:53:59.661Z,98347.88
2022-08-14T12:56:33.628Z,98352.22
2022-08-14T12:59:01.892Z,98349.72
2022-08-14T13:02:00.362Z,98339.94
2022-08-14T13:04:36.525Z,98335.09
2022-08-14T13:07:10.844Z,98344.66
2022-08-14T13:09:43.396Z,98337.09
2022-08-14T13:12:32.122Z,98336.94
2022-08-14T13:15:29.087Z,98330.34
2022-08-14T13:18:18.261Z,98327.84
2022-08-14T13:20:59.664Z,98331.69
2022-08-14T13:23:37.433Z,98318.59
2022-08-14T13:26:16.430Z,98313.56
2022-08-14T13:29:03.845Z,98322.59
2022-08-14T13:31:40.389Z,98299.16
2022-08-14T13:37:31.014Z,98292.66
2022-08-14T13:39:58.904Z,98295.41
2022-08-14T13:42:31.607Z,98295.97
2022-08-14T13:58:38.098Z,98266.78
2022-08-14T14:15:57.724Z,98247.19
2022-08-14T14:18:34.845Z,98240.75
2022-08-14T14:25:13.097Z,98242.78
2022-08-14T14:28:33.425Z,98245.44
2022-08-14T14:31:08.803Z,98242.34
2022-08-14T14:34:20.161Z,98237.28
2022-08-14T14:37:03.115Z,98234.22
2022-08-14T14:40:54.560Z,98232.97
2022-08-14T14:45:58.899Z,98221.28
2022-08-14T14:51:51.556Z,98226.28
2022-08-14T14:54:54.234Z,98227.81
2022-08-14T14:58:07.268Z,98221.81
2022-08-14T15:08:01.111Z,98224.84
2022-08-14T15:11:13.417Z,98229.38
2022-08-14T15:13:53.301Z,98229.00
2022-08-14T15:16:59.223Z,98225.53
2022-08-14T15:20:30.145Z,98227.09
2022-08-14T15:23:49.375Z,98224.75
2022-08-14T15:29:50.061Z,98232.06
2022-08-14T15:32:22.416Z,98230.06
2022-08-14T15:34:57.383Z,98227.56
2022-08-14T15:41:42.802Z,98226.66
2022-08-14T15:46:55.459Z,98229.31
2022-08-14T15:48:21.967Z,98228.63
2022-08-14T15:55:18.462Z,98230.97
2022-08-14T16:01:53.535Z,98240.22
2022-08-14T16:05:38.661Z,98245.06
2022-08-14T16:08:58.857Z,98242.13
2022-08-14T16:17:00.403Z,98246.16
2022-08-14T16:18:49.705Z,98241.59
2022-08-14T16:25:35.390Z,98239.09
2022-08-14T16:29:14.232Z,98238.41
2022-08-14T16:36:26.545Z,98236.34
2022-08-14T16:39:54.710Z,98235.97
2022-08-14T16:40:24.514Z,98237.88
2022-08-14T16:43:04.747Z,98228.84
2022-08-14T16:59:19.613Z,98227.72
2022-08-14T17:02:09.160Z,98235.06
2022-08-14T17:04:49.241Z,98231.63
2022-08-14T17:07:56.471Z,98237.19
2022-08-14T17:32:29.739Z,98248.03
2022-08-14T17:36:20.940Z,98243.91
2022-08-14T17:39:50.378Z,98240.13
2022-08-14T17:47:59.906Z,98255.63
2022-08-14T17:54:34.702Z,98249.47
2022-08-14T17:57:45.873Z,98243.91
2022-08-14T18:00:52.601Z,98252.25
2022-08-14T18:03:53.178Z,98257.97
2022-08-14T18:07:08.801Z,98267.03
2022-08-14T18:13:16.855Z,98278.28
2022-08-14T18:15:54.554Z,98278.16
2022-08-14T18:18:51.488Z,98283.44
2022-08-14T18:21:57.485Z,98288.72
2022-08-14T18:24:57.552Z,98293.13
2022-08-14T18:28:00.290Z,98295.34
2022-08-14T18:30:58.897Z,98296.00
2022-08-14T18:33:33.191Z,98294.59
2022-08-14T18:36:47.186Z,98288.59
2022-08-14T18:40:01.142Z,98295.41
2022-08-14T18:42:36.169Z,98292.34
2022-08-14T18:45:12.940Z,98295.25
2022-08-14T18:48:14.094Z,98292.16
2022-08-14T18:50:59.063Z,98296.31
2022-08-14T18:53:34.288Z,98296.88
2022-08-14T18:56:11.408Z,98292.78
2022-08-14T18:59:10.411Z,98288.19
2022-08-14T19:01:51.746Z,98277.16
2022-08-14T19:04:44.085Z,98290.63
2022-08-14T19:07:19.365Z,98290.88
2022-08-14T19:10:01.960Z,98282.50
2022-08-14T19:13:00.509Z,98275.25
2022-08-14T19:15:31.602Z,98263.44
2022-08-14T19:18:15.112Z,98264.78
2022-08-14T19:20:53.350Z,98257.13
2022-08-14T19:23:23.303Z,98259.34
2022-08-14T19:26:53.909Z,98260.09
2022-08-14T19:29:37.814Z,98258.72
2022-08-14T19:32:36.682Z,98255.50
2022-08-14T19:37:04.588Z,98264.75
2022-08-14T19:38:59.318Z,98259.41
2022-08-14T19:41:52.058Z,98259.91
2022-08-14T19:45:15.927Z,98250.00
2022-08-14T19:48:16.112Z,98262.47
2022-08-14T19:51:04.180Z,98257.00
2022-08-14T19:54:13.752Z,98255.72
2022-08-14T20:24:31.197Z,98267.09
2022-08-14T20:28:30.060Z,98273.47
2022-08-14T20:35:09.408Z,98275.63
2022-08-14T20:37:22.650Z,98272.66
2022-08-14T20:39:53.568Z,98274.44
2022-08-14T20:42:43.520Z,98277.19
2022-08-14T20:45:29.009Z,98282.13
2022-08-14T20:48:07.137Z,98272.66
2022-08-14T20:50:34.608Z,98272.09
2022-08-14T20:53:05.996Z,98275.66
2022-08-14T20:55:41.689Z,98275.00
2022-08-14T20:58:43.299Z,98277.31
2022-08-14T21:01:32.492Z,98281.47
2022-08-14T21:04:00.996Z,98277.31
2022-08-14T21:07:23.921Z,98281.34
2022-08-14T21:09:20.104Z,98276.09
2022-08-14T21:12:07.421Z,98284.22
2022-08-14T21:14:55.186Z,98278.47
2022-08-14T21:17:25.663Z,98278.72
2022-08-14T21:19:54.016Z,98282.31
2022-08-14T21:22:21.351Z,98279.06
2022-08-14T21:24:48.577Z,98280.25
2022-08-14T21:27:21.930Z,98282.28
2022-08-14T21:29:55.185Z,98280.84
2022-08-14T21:32:50.327Z,98285.38
2022-08-14T21:35:25.348Z,98279.13
2022-08-14T21:37:53.974Z,98280.94
2022-08-14T21:40:40.981Z,98280.22
2022-08-14T21:43:18.157Z,98286.75
2022-08-14T21:45:53.497Z,98292.94
2022-08-14T21:48:25.346Z,98288.88
2022-08-14T21:51:01.453Z,98300.56
2022-08-14T21:53:59.422Z,98287.41
2022-08-14T21:56:39.080Z,98302.34
2022-08-14T21:59:17.657Z,98300.84
2022-08-14T22:01:59.378Z,98285.88
2022-08-14T22:04:32.598Z,98290.44
2022-08-14T22:07:02.062Z,98282.16
2022-08-14T22:09:32.483Z,98281.31
2022-08-14T22:12:06.960Z,98290.88
2022-08-14T22:14:43.710Z,98291.31
2022-08-14T22:17:16.354Z,98299.31
2022-08-14T22:19:54.166Z,98304.72
2022-08-14T22:22:24.198Z,98297.91
2022-08-14T22:25:00.356Z,98301.38
2022-08-14T22:27:32.557Z,98296.97
2022-08-14T22:30:18.707Z,98302.41
2022-08-14T22:32:57.951Z,98293.19
2022-08-14T22:35:26.329Z,98282.06
2022-08-14T22:38:36.341Z,98282.06
2022-08-14T22:41:02.551Z,98291.13
2022-08-14T22:43:31.459Z,98288.59
2022-08-14T22:46:02.494Z,98282.00
2022-08-14T22:48:29.868Z,98290.94
2022-08-14T22:50:57.142Z,98281.25
2022-08-14T22:53:29.284Z,98278.16
2022-08-14T22:55:57.165Z,98273.22
2022-08-14T22:58:30.710Z,98269.13
2022-08-14T23:01:03.927Z,98277.00
2022-08-14T23:03:34.788Z,98278.19
2022-08-14T23:07:03.378Z,98276.47
2022-08-14T23:08:59.254Z,98274.41
2022-08-14T23:11:28.764Z,98275.38
2022-08-14T23:13:56.175Z,98272.13
2022-08-14T23:16:28.067Z,98269.81
2022-08-14T23:18:55.483Z,98268.97
2022-08-14T23:21:24.453Z,98277.69
2022-08-14T23:23:54.865Z,98283.16
2022-08-14T23:26:47.041Z,98285.97
2022-08-14T23:29:11.670Z,98288.28
2022-08-14T23:31:39.563Z,98292.50
2022-08-14T23:34:08.304Z,98280.50
2022-08-14T23:36:53.114Z,98267.94
2022-08-14T23:39:29.640Z,98282.00
2022-08-14T23:41:57.201Z,98278.84
2022-08-14T23:44:35.297Z,98276.66
2022-08-14T23:47:11.610Z,98280.09
2022-08-14T23:49:59.753Z,98288.28
2022-08-14T23:52:50.648Z,98287.44
2022-08-14T23:55:20.651Z,98292.16
2022-08-14T23:57:57.837Z,98282.63
